createdAt,value
2017-08-24T00:02:27.211Z,14.28
2017-08-24T00:04:55.530Z,14.28
2017-08-24T00:07:23.838Z,14.27
2017-08-24T00:09:52.178Z,14.27
2017-08-24T00:12:20.472Z,14.31
2017-08-24T00:14:48.804Z,14.35
2017-08-24T00:17:17.122Z,14.36
2017-08-24T00:19:45.456Z,14.45
2017-08-24T00:22:13.761Z,14.47
2017-08-24T00:24:42.094Z,14.51
2017-08-24T00:27:10.414Z,14.53
2017-08-24T00:29:38.711Z,14.54
2017-08-24T00:32:07.017Z,14.57
2017-08-24T00:34:35.321Z,14.55
2017-08-24T00:37:03.632Z,14.56
2017-08-24T00:39:31.940Z,14.59
2017-08-24T00:42:00.968Z,14.59
2017-08-24T00:44:29.290Z,14.64
2017-08-24T00:46:57.595Z,14.63
2017-08-24T00:49:25.988Z,14.67
2017-08-24T00:51:54.302Z,14.61
2017-08-24T00:54:22.613Z,14.62
2017-08-24T00:56:50.931Z,14.58
2017-08-24T00:59:19.411Z,14.53
2017-08-24T01:01:47.709Z,14.48
2017-08-24T01:04:16.037Z,14.46
2017-08-24T01:06:44.359Z,14.38
2017-08-24T01:09:12.669Z,14.36
2017-08-24T01:11:40.992Z,14.31
2017-08-24T01:14:09.293Z,14.17
2017-08-24T01:16:37.593Z,14.14
2017-08-24T01:19:05.895Z,14.07
2017-08-24T01:21:34.202Z,14.04
2017-08-24T01:24:02.510Z,13.91
2017-08-24T01:26:30.826Z,13.96
2017-08-24T01:28:59.142Z,14.06
2017-08-24T01:31:27.483Z,14.06
2017-08-24T01:33:55.793Z,14.11
2017-08-24T01:36:24.103Z,14.09
2017-08-24T01:38:52.418Z,14.13
2017-08-24T01:41:20.747Z,14.19
2017-08-24T01:43:49.066Z,14.29
2017-08-24T01:46:24.202Z,14.37
2017-08-24T01:48:52.560Z,14.40
2017-08-24T01:51:20.882Z,14.40
2017-08-24T01:53:49.215Z,14.41
2017-08-24T01:56:17.526Z,14.40
2017-08-24T01:58:45.892Z,14.48
2017-08-24T02:01:14.189Z,14.47
2017-08-24T02:03:42.531Z,14.51
2017-08-24T02:06:10.855Z,14.35
2017-08-24T02:08:39.170Z,14.25
2017-08-24T02:11:07.481Z,14.17
2017-08-24T02:13:35.777Z,14.15
2017-08-24T02:16:04.080Z,14.14
2017-08-24T02:18:32.446Z,14.19
2017-08-24T02:21:00.774Z,14.24
2017-08-24T02:23:29.081Z,14.28
2017-08-24T02:25:57.377Z,14.25
2017-08-24T02:28:25.685Z,14.20
2017-08-24T02:30:53.982Z,14.09
2017-08-24T02:33:22.301Z,14.09
2017-08-24T02:35:58.433Z,14.05
2017-08-24T02:38:26.749Z,14.10
2017-08-24T02:40:55.059Z,14.12
2017-08-24T02:43:23.376Z,14.13
2017-08-24T02:45:51.784Z,14.14
2017-08-24T02:48:20.113Z,14.09
2017-08-24T02:50:48.429Z,14.05
2017-08-24T02:53:16.741Z,14.11
2017-08-24T02:55:45.069Z,14.00
2017-08-24T02:58:13.380Z,13.93
2017-08-24T03:00:41.703Z,13.98
2017-08-24T03:03:10.033Z,14.00
2017-08-24T03:05:38.361Z,14.08
2017-08-24T03:08:06.677Z,14.21
2017-08-24T03:10:35.012Z,14.17
2017-08-24T03:13:03.344Z,14.16
2017-08-24T03:15:31.654Z,14.18
2017-08-24T03:17:59.965Z,14.17
2017-08-24T03:20:28.272Z,14.18
2017-08-24T03:22:56.600Z,14.13
2017-08-24T03:25:24.925Z,14.09
2017-08-24T03:27:53.238Z,14.08
2017-08-24T03:30:21.581Z,14.10
2017-08-24T03:32:49.936Z,14.11
2017-08-24T03:35:18.259Z,14.09
2017-08-24T03:37:46.591Z,14.12
2017-08-24T03:40:14.916Z,14.11
2017-08-24T03:42:43.236Z,14.01
2017-08-24T03:45:11.571Z,14.04
2017-08-24T03:47:39.898Z,14.05
2017-08-24T03:50:08.218Z,13.97
2017-08-24T03:52:36.538Z,13.94
2017-08-24T03:55:04.870Z,13.97
2017-08-24T03:57:33.179Z,14.01
2017-08-24T04:00:01.507Z,14.02
2017-08-24T04:02:29.836Z,14.11
2017-08-24T04:04:58.245Z,14.10
2017-08-24T04:07:26.582Z,14.04
2017-08-24T04:09:54.892Z,14.02
2017-08-24T04:12:23.222Z,13.93
2017-08-24T04:14:51.538Z,13.89
2017-08-24T04:17:19.879Z,13.91
2017-08-24T04:19:48.192Z,13.92
2017-08-24T04:22:16.544Z,13.99
2017-08-24T04:24:44.873Z,14.07
2017-08-24T04:27:13.235Z,14.10
2017-08-24T04:29:41.593Z,14.18
2017-08-24T04:32:09.935Z,14.28
2017-08-24T04:34:38.261Z,14.30
2017-08-24T04:37:06.586Z,14.40
2017-08-24T04:39:34.925Z,14.47
2017-08-24T04:42:03.233Z,14.52
2017-08-24T04:44:31.814Z,14.61
2017-08-24T04:47:00.134Z,14.66
2017-08-24T04:49:28.470Z,14.60
2017-08-24T04:51:56.810Z,14.62
2017-08-24T04:54:25.121Z,14.68
2017-08-24T04:56:53.445Z,14.73
2017-08-24T04:59:21.780Z,14.86
2017-08-24T05:01:50.102Z,14.91
2017-08-24T05:04:18.409Z,15.03
2017-08-24T05:06:46.759Z,15.17
2017-08-24T05:09:15.070Z,15.09
2017-08-24T05:11:43.379Z,15.22
2017-08-24T05:14:11.698Z,15.19
2017-08-24T05:16:40.362Z,15.21
2017-08-24T05:19:08.749Z,15.26
2017-08-24T05:21:37.066Z,15.47
2017-08-24T05:24:05.381Z,15.63
2017-08-24T05:26:33.717Z,15.75
2017-08-24T05:29:02.054Z,15.79
2017-08-24T05:31:30.365Z,16.01
2017-08-24T05:33:58.678Z,16.11
2017-08-24T05:36:27.013Z,16.09
2017-08-24T05:38:55.328Z,16.18
2017-08-24T05:41:23.641Z,16.27
2017-08-24T05:43:51.962Z,16.34
2017-08-24T05:46:20.285Z,16.78
2017-08-24T05:48:48.598Z,16.84
2017-08-24T05:51:16.930Z,16.72
2017-08-24T05:53:45.242Z,16.89
2017-08-24T05:56:13.555Z,17.22
2017-08-24T05:58:41.879Z,17.29
2017-08-24T06:01:11.098Z,17.40
2017-08-24T06:03:39.410Z,17.37
2017-08-24T06:06:07.746Z,17.61
2017-08-24T06:08:36.067Z,17.65
2017-08-24T06:11:04.385Z,17.23
2017-08-24T06:13:32.710Z,17.57
2017-08-24T06:16:01.025Z,17.38
2017-08-24T06:18:29.334Z,17.43
2017-08-24T06:20:57.659Z,17.49
2017-08-24T06:23:25.978Z,17.77
2017-08-24T06:25:54.304Z,18.06
2017-08-24T06:28:22.623Z,17.75
2017-08-24T06:30:50.938Z,18.12
2017-08-24T06:33:19.253Z,18.10
2017-08-24T06:35:47.595Z,18.25
2017-08-24T06:38:15.911Z,18.47
2017-08-24T06:40:44.227Z,18.08
2017-08-24T06:43:12.554Z,17.95
2017-08-24T06:45:40.864Z,18.24
2017-08-24T06:48:09.186Z,18.28
2017-08-24T06:50:37.492Z,18.16
2017-08-24T06:53:05.801Z,18.08
2017-08-24T06:55:34.110Z,18.04
2017-08-24T06:58:02.430Z,18.22
2017-08-24T07:00:30.738Z,18.35
2017-08-24T07:02:59.078Z,17.93
2017-08-24T07:05:27.387Z,18.00
2017-08-24T07:07:55.700Z,18.06
2017-08-24T07:10:24.023Z,17.94
2017-08-24T07:12:52.335Z,17.99
2017-08-24T07:15:20.661Z,18.08
2017-08-24T07:17:48.971Z,17.91
2017-08-24T07:20:17.285Z,17.94
2017-08-24T07:22:45.591Z,17.90
2017-08-24T07:25:13.938Z,17.84
2017-08-24T07:27:42.268Z,17.78
2017-08-24T07:30:10.598Z,17.56
2017-08-24T07:32:38.926Z,17.44
2017-08-24T07:35:07.253Z,17.50
2017-08-24T07:37:35.598Z,17.48
2017-08-24T07:40:03.906Z,17.74
2017-08-24T07:42:32.237Z,17.86
2017-08-24T07:45:00.581Z,18.04
2017-08-24T07:47:28.906Z,18.19
2017-08-24T07:49:57.223Z,18.34
2017-08-24T07:52:25.573Z,18.33
2017-08-24T07:54:53.891Z,18.42
2017-08-24T07:57:22.207Z,18.46
2017-08-24T07:59:50.559Z,18.22
2017-08-24T08:02:18.875Z,17.94
2017-08-24T08:04:47.185Z,18.10
2017-08-24T08:07:15.530Z,17.91
2017-08-24T08:09:43.848Z,17.96
2017-08-24T08:12:12.161Z,17.76
2017-08-24T08:14:40.509Z,17.54
2017-08-24T08:17:08.835Z,17.15
2017-08-24T08:19:37.150Z,16.57
2017-08-24T08:22:05.497Z,16.34
2017-08-24T08:24:33.808Z,16.26
2017-08-24T08:27:02.127Z,16.23
2017-08-24T08:29:30.469Z,16.29
2017-08-24T08:31:58.778Z,16.27
2017-08-24T08:34:27.086Z,16.54
2017-08-24T08:36:55.434Z,16.78
2017-08-24T08:39:23.742Z,16.96
2017-08-24T08:41:52.057Z,17.21
2017-08-24T08:44:20.409Z,17.34
2017-08-24T08:46:48.729Z,17.54
2017-08-24T08:49:17.040Z,17.75
2017-08-24T08:51:45.397Z,17.75
2017-08-24T08:54:13.709Z,17.88
2017-08-24T08:56:42.027Z,18.11
2017-08-24T08:59:10.366Z,18.39
2017-08-24T09:01:38.690Z,18.94
2017-08-24T09:04:07.001Z,19.32
2017-08-24T09:06:35.355Z,18.81
2017-08-24T09:09:03.679Z,18.62
2017-08-24T09:11:32.005Z,18.93
2017-08-24T09:14:00.332Z,18.66
2017-08-24T09:16:28.669Z,18.61
2017-08-24T09:18:56.998Z,18.93
2017-08-24T09:21:25.326Z,19.39
2017-08-24T09:23:53.645Z,19.44
2017-08-24T09:26:21.953Z,19.55
2017-08-24T09:28:50.276Z,19.95
2017-08-24T09:31:18.598Z,19.77
2017-08-24T09:33:46.925Z,20.51
2017-08-24T09:36:15.242Z,20.92
2017-08-24T09:38:43.583Z,21.46
2017-08-24T09:41:11.905Z,22.36
2017-08-24T09:43:40.238Z,22.53
2017-08-24T09:46:08.551Z,22.51
2017-08-24T09:48:36.893Z,21.96
2017-08-24T09:51:05.211Z,22.07
2017-08-24T09:53:33.538Z,21.75
2017-08-24T09:56:01.851Z,22.07
2017-08-24T09:58:30.181Z,23.25
2017-08-24T10:00:58.490Z,23.28
2017-08-24T10:03:26.878Z,24.26
2017-08-24T10:05:55.198Z,24.88
2017-08-24T10:08:23.513Z,24.44
2017-08-24T10:10:51.840Z,24.57
2017-08-24T10:13:20.150Z,24.59
2017-08-24T10:15:48.474Z,23.86
2017-08-24T10:18:16.798Z,23.52
2017-08-24T10:20:45.138Z,22.97
2017-08-24T10:23:13.454Z,23.13
2017-08-24T10:25:41.787Z,23.10
2017-08-24T10:28:10.110Z,22.82
2017-08-24T10:30:38.467Z,22.69
2017-08-24T10:33:06.766Z,22.47
2017-08-24T10:35:35.094Z,22.05
2017-08-24T10:38:03.412Z,22.08
2017-08-24T10:40:31.742Z,22.05
2017-08-24T10:43:00.068Z,21.96
2017-08-24T10:45:28.398Z,21.97
2017-08-24T10:47:56.742Z,21.84
2017-08-24T10:50:25.073Z,22.24
2017-08-24T10:52:53.394Z,22.24
2017-08-24T10:55:21.723Z,22.20
2017-08-24T10:57:50.054Z,22.18
2017-08-24T11:00:18.394Z,22.29
2017-08-24T11:02:46.709Z,22.88
2017-08-24T11:05:15.031Z,22.78
2017-08-24T11:07:43.349Z,22.66
2017-08-24T11:10:11.686Z,22.32
2017-08-24T11:12:40.004Z,22.67
2017-08-24T11:15:08.314Z,23.38
2017-08-24T11:17:36.634Z,23.50
2017-08-24T11:20:04.947Z,23.76
2017-08-24T11:22:33.258Z,23.57
2017-08-24T11:25:01.582Z,23.27
2017-08-24T11:27:29.898Z,23.43
2017-08-24T11:29:58.219Z,23.72
2017-08-24T11:32:26.546Z,23.66
2017-08-24T11:34:54.857Z,22.98
2017-08-24T11:37:23.178Z,22.72
2017-08-24T11:39:51.486Z,22.57
2017-08-24T11:42:19.807Z,22.62
2017-08-24T11:44:48.130Z,22.37
2017-08-24T11:47:16.458Z,22.29
2017-08-24T11:49:44.768Z,22.41
2017-08-24T11:52:13.081Z,22.39
2017-08-24T11:54:41.389Z,22.17
2017-08-24T11:57:09.722Z,22.31
2017-08-24T11:59:38.026Z,22.51
2017-08-24T12:02:06.358Z,22.95
2017-08-24T12:04:34.667Z,23.54
2017-08-24T12:07:02.991Z,24.04
2017-08-24T12:09:31.308Z,24.39
2017-08-24T12:11:59.629Z,25.17
2017-08-24T12:14:27.942Z,25.31
2017-08-24T12:16:56.274Z,25.39
2017-08-24T12:19:24.588Z,26.70
2017-08-24T12:21:52.905Z,26.37
2017-08-24T12:24:21.227Z,26.73
2017-08-24T12:26:49.539Z,26.07
2017-08-24T12:29:17.853Z,25.55
2017-08-24T12:31:46.158Z,25.39
2017-08-24T12:34:14.474Z,24.73
2017-08-24T12:36:42.842Z,24.70
2017-08-24T12:39:11.158Z,24.56
2017-08-24T12:41:39.465Z,25.11
2017-08-24T12:44:07.783Z,25.43
2017-08-24T12:46:36.087Z,24.73
2017-08-24T12:49:04.407Z,25.20
2017-08-24T12:51:32.718Z,25.48
2017-08-24T12:54:01.030Z,25.51
2017-08-24T12:56:29.334Z,25.41
2017-08-24T12:58:58.655Z,25.36
2017-08-24T13:01:26.968Z,24.69
2017-08-24T13:03:55.287Z,25.19
2017-08-24T13:06:23.593Z,26.13
2017-08-24T13:08:51.933Z,26.16
2017-08-24T13:11:20.251Z,25.97
2017-08-24T13:13:48.590Z,25.15
2017-08-24T13:16:16.936Z,26.08
2017-08-24T13:18:45.258Z,26.52
2017-08-24T13:21:13.577Z,26.67
2017-08-24T13:23:41.919Z,27.44
2017-08-24T13:26:10.233Z,27.39
2017-08-24T13:28:38.574Z,27.35
2017-08-24T13:31:06.890Z,27.62
2017-08-24T13:33:35.207Z,27.53
2017-08-24T13:36:03.534Z,27.51
2017-08-24T13:38:32.087Z,27.47
2017-08-24T13:41:00.663Z,27.78
2017-08-24T13:43:28.977Z,26.39
2017-08-24T13:45:57.294Z,26.19
2017-08-24T13:48:25.610Z,27.03
2017-08-24T13:50:53.927Z,27.49
2017-08-24T13:53:22.241Z,27.45
2017-08-24T13:55:50.578Z,26.61
2017-08-24T13:58:18.897Z,26.66
2017-08-24T14:00:47.231Z,26.57
2017-08-24T14:03:15.538Z,26.25
2017-08-24T14:05:43.859Z,25.67
2017-08-24T14:08:12.167Z,25.37
2017-08-24T14:10:40.488Z,25.44
2017-08-24T14:13:08.822Z,25.48
2017-08-24T14:15:37.143Z,25.52
2017-08-24T14:18:05.485Z,25.74
2017-08-24T14:20:33.802Z,25.40
2017-08-24T14:23:02.110Z,25.75
2017-08-24T14:25:30.426Z,25.17
2017-08-24T14:27:58.734Z,25.40
2017-08-24T14:30:27.058Z,25.71
2017-08-24T14:32:55.380Z,26.19
2017-08-24T14:35:23.711Z,25.99
2017-08-24T14:37:52.029Z,26.19
2017-08-24T14:40:20.337Z,26.80
2017-08-24T14:42:48.650Z,26.79
2017-08-24T14:45:16.981Z,26.52
2017-08-24T14:47:45.301Z,27.01
2017-08-24T14:50:13.607Z,27.08
2017-08-24T14:52:41.925Z,26.92
2017-08-24T14:55:10.234Z,26.80
2017-08-24T14:57:38.557Z,26.69
2017-08-24T15:00:06.874Z,26.19
2017-08-24T15:02:35.197Z,25.54
2017-08-24T15:05:03.506Z,25.38
2017-08-24T15:07:31.826Z,24.79
2017-08-24T15:10:00.142Z,24.93
2017-08-24T15:12:28.458Z,25.55
2017-08-24T15:14:56.780Z,25.49
2017-08-24T15:17:25.097Z,25.87
2017-08-24T15:19:53.418Z,25.55
2017-08-24T15:22:21.841Z,26.16
2017-08-24T15:24:50.154Z,26.00
2017-08-24T15:27:18.478Z,26.33
2017-08-24T15:29:46.789Z,26.01
2017-08-24T15:32:15.105Z,25.91
2017-08-24T15:34:43.419Z,25.78
2017-08-24T15:37:11.748Z,26.00
2017-08-24T15:39:40.053Z,25.73
2017-08-24T15:42:08.382Z,25.39
2017-08-24T15:44:36.705Z,25.50
2017-08-24T15:47:05.039Z,25.34
2017-08-24T15:49:33.346Z,25.21
2017-08-24T15:52:01.653Z,24.95
2017-08-24T15:54:29.973Z,25.28
2017-08-24T15:56:58.389Z,25.33
2017-08-24T15:59:26.706Z,25.55
2017-08-24T16:01:55.018Z,25.61
2017-08-24T16:04:23.338Z,25.88
2017-08-24T16:06:51.647Z,25.98
2017-08-24T16:09:19.965Z,25.62
2017-08-24T16:11:48.270Z,25.65
2017-08-24T16:14:16.607Z,25.26
2017-08-24T16:16:44.938Z,25.27
2017-08-24T16:19:13.286Z,24.97
2017-08-24T16:21:41.597Z,25.09
2017-08-24T16:24:09.914Z,24.73
2017-08-24T16:26:38.221Z,24.50
2017-08-24T16:29:06.535Z,24.43
2017-08-24T16:31:34.847Z,24.29
2017-08-24T16:34:03.170Z,24.01
2017-08-24T16:36:31.476Z,23.94
2017-08-24T16:38:59.801Z,23.82
2017-08-24T16:41:28.126Z,23.75
2017-08-24T16:43:56.445Z,23.59
2017-08-24T16:46:24.753Z,23.63
2017-08-24T16:48:53.081Z,23.53
2017-08-24T16:51:21.397Z,23.35
2017-08-24T16:53:49.734Z,23.30
2017-08-24T16:56:18.049Z,23.33
2017-08-24T16:58:46.349Z,23.17
2017-08-24T17:01:14.666Z,23.07
2017-08-24T17:03:42.971Z,22.94
2017-08-24T17:06:11.287Z,22.76
2017-08-24T17:08:39.634Z,22.64
2017-08-24T17:11:08.249Z,22.54
2017-08-24T17:13:36.759Z,22.44
2017-08-24T17:16:05.089Z,22.28
2017-08-24T17:18:33.394Z,22.21
2017-08-24T17:21:01.718Z,22.11
2017-08-24T17:23:30.034Z,22.03
2017-08-24T17:25:58.365Z,21.95
2017-08-24T17:28:26.685Z,21.89
2017-08-24T17:30:55.008Z,21.89
2017-08-24T17:33:23.326Z,21.82
2017-08-24T17:35:51.850Z,21.79
2017-08-24T17:38:20.166Z,21.68
2017-08-24T17:40:48.490Z,21.57
2017-08-24T17:43:16.868Z,21.47
2017-08-24T17:45:45.199Z,21.42
2017-08-24T17:48:13.505Z,21.43
2017-08-24T17:50:41.860Z,21.35
2017-08-24T17:53:10.188Z,21.30
2017-08-24T17:58:06.211Z,21.15
2017-08-24T18:00:34.547Z,21.08
2017-08-24T18:03:02.861Z,21.01
2017-08-24T18:05:31.202Z,20.93
2017-08-24T18:07:59.518Z,20.83
2017-08-24T18:10:27.829Z,20.73
2017-08-24T18:12:56.138Z,20.66
2017-08-24T18:15:24.450Z,20.61
2017-08-24T18:17:53.574Z,20.55
2017-08-24T18:20:21.883Z,20.49
2017-08-24T18:22:50.199Z,20.41
2017-08-24T18:25:18.504Z,20.33
2017-08-24T18:27:46.821Z,20.27
2017-08-24T18:30:15.129Z,20.19
2017-08-24T18:32:43.455Z,20.13
2017-08-24T18:35:11.770Z,20.06
2017-08-24T18:37:40.111Z,19.95
2017-08-24T18:40:08.422Z,19.86
2017-08-24T18:42:36.775Z,19.85
2017-08-24T18:45:05.167Z,19.79
2017-08-24T18:47:34.058Z,19.72
2017-08-24T18:50:02.597Z,19.67
2017-08-24T18:52:31.366Z,19.62
2017-08-24T18:55:00.790Z,19.56
2017-08-24T18:57:29.335Z,19.54
2017-08-24T18:59:57.661Z,19.48
2017-08-24T19:02:26.029Z,19.44
2017-08-24T19:04:54.358Z,19.41
2017-08-24T19:07:22.679Z,19.36
2017-08-24T19:09:51.010Z,19.36
2017-08-24T19:12:19.365Z,19.34
2017-08-24T19:14:47.698Z,19.29
2017-08-24T19:17:16.036Z,19.26
2017-08-24T19:19:44.373Z,19.22
2017-08-24T19:22:12.694Z,19.20
2017-08-24T19:24:41.011Z,19.15
2017-08-24T19:27:09.328Z,19.10
2017-08-24T19:29:37.646Z,19.07
2017-08-24T19:32:05.956Z,19.02
2017-08-24T19:34:34.337Z,18.95
2017-08-24T19:37:02.658Z,18.87
2017-08-24T19:39:30.984Z,18.84
2017-08-24T19:41:59.291Z,18.80
2017-08-24T19:44:27.690Z,18.67
2017-08-24T19:46:55.997Z,18.61
2017-08-24T19:49:24.323Z,18.55
2017-08-24T19:51:52.642Z,18.50
2017-08-24T19:54:20.965Z,18.41
2017-08-24T19:56:49.274Z,18.38
2017-08-24T19:59:17.618Z,18.36
2017-08-24T20:01:45.932Z,18.32
2017-08-24T20:04:14.253Z,18.27
2017-08-24T20:06:42.564Z,18.27
2017-08-24T20:09:10.881Z,18.23
2017-08-24T20:11:39.194Z,18.22
2017-08-24T20:14:07.504Z,18.18
2017-08-24T20:16:35.814Z,18.13
2017-08-24T20:19:04.148Z,18.07
2017-08-24T20:21:32.468Z,17.99
2017-08-24T20:24:00.822Z,17.94
2017-08-24T20:26:29.134Z,17.96
2017-08-24T20:28:57.454Z,17.96
2017-08-24T20:31:25.786Z,17.96
2017-08-24T20:33:54.101Z,17.99
2017-08-24T20:36:22.422Z,17.94
2017-08-24T20:38:50.746Z,17.93
2017-08-24T20:41:19.067Z,17.92
2017-08-24T20:43:47.385Z,17.90
2017-08-24T20:46:15.703Z,17.89
2017-08-24T20:48:44.017Z,17.88
2017-08-24T20:51:12.335Z,17.87
2017-08-24T20:53:40.650Z,17.91
2017-08-24T20:56:08.995Z,17.87
2017-08-24T20:58:37.301Z,17.83
2017-08-24T21:01:05.622Z,17.82
2017-08-24T21:03:33.981Z,17.81
2017-08-24T21:06:02.312Z,17.80
2017-08-24T21:08:30.625Z,17.77
2017-08-24T21:10:58.957Z,17.73
2017-08-24T21:13:27.295Z,17.67
2017-08-24T21:15:55.619Z,17.57
2017-08-24T21:18:23.939Z,17.50
2017-08-24T21:20:52.263Z,17.48
2017-08-24T21:23:20.578Z,17.42
2017-08-24T21:25:48.898Z,17.39
2017-08-24T21:28:17.214Z,17.36
2017-08-24T21:30:45.565Z,17.34
2017-08-24T21:33:13.879Z,17.32
2017-08-24T21:35:42.212Z,17.25
2017-08-24T21:38:10.558Z,17.25
2017-08-24T21:40:38.878Z,17.22
2017-08-24T21:43:08.038Z,17.18
2017-08-24T21:45:36.371Z,17.15
2017-08-24T21:48:04.690Z,17.08
2017-08-24T21:50:33.006Z,17.09
2017-08-24T21:53:01.330Z,17.07
2017-08-24T21:55:29.666Z,17.10
2017-08-24T21:57:58.004Z,17.11
2017-08-24T22:00:26.317Z,17.12
2017-08-24T22:02:54.638Z,17.08
2017-08-24T22:05:22.949Z,17.05
2017-08-24T22:07:51.266Z,16.99
2017-08-24T22:10:19.572Z,16.95
2017-08-24T22:12:47.889Z,16.94
2017-08-24T22:15:16.210Z,16.90
2017-08-24T22:17:44.541Z,16.89
2017-08-24T22:20:12.854Z,16.89
2017-08-24T22:22:41.188Z,16.85
2017-08-24T22:25:09.517Z,16.81
2017-08-24T22:27:37.829Z,16.76
2017-08-24T22:30:06.139Z,16.76
2017-08-24T22:32:34.465Z,16.78
2017-08-24T22:35:02.780Z,16.76
2017-08-24T22:37:31.097Z,16.78
2017-08-24T22:39:59.402Z,16.77
2017-08-24T22:42:27.751Z,16.79
2017-08-24T22:44:56.062Z,16.84
2017-08-24T22:47:24.373Z,16.87
2017-08-24T22:49:52.690Z,16.87
2017-08-24T22:52:20.993Z,16.87
2017-08-24T22:54:54.723Z,16.85
2017-08-24T22:57:28.599Z,16.86
2017-08-24T23:00:02.259Z,16.85
2017-08-24T23:05:37.422Z,16.85
2017-08-24T23:08:05.728Z,16.83
2017-08-24T23:10:34.042Z,16.84
2017-08-24T23:13:02.356Z,16.82
2017-08-24T23:15:30.673Z,16.79
2017-08-24T23:17:58.992Z,16.76
2017-08-24T23:20:27.320Z,16.74
2017-08-24T23:22:55.634Z,16.69
2017-08-24T23:25:23.950Z,16.70
2017-08-24T23:27:52.272Z,16.64
2017-08-24T23:30:20.605Z,16.57
2017-08-24T23:32:48.921Z,16.57
2017-08-24T23:35:17.251Z,16.53
2017-08-24T23:37:45.573Z,16.53
2017-08-24T23:40:13.903Z,16.51
2017-08-24T23:42:42.202Z,16.50
2017-08-24T23:45:10.527Z,16.44
2017-08-24T23:47:38.847Z,16.46
2017-08-24T23:50:07.161Z,16.42
2017-08-24T23:52:35.478Z,16.36
2017-08-24T23:55:03.794Z,16.32
2017-08-24T23:57:32.106Z,16.32
